sensor_id;sensor_type;location;lat;lon;timestamp;pressure;altitude;pressure_sealevel;temperature;humidity
31585;BME280;18191;51.288;12.390;2022-08-03T00:02:40;48897.44;;;-144.47;74.78
31585;BME280;18191;51.288;12.390;2022-08-03T00:07:30;48893.47;;;-144.47;74.75
31585;BME280;18191;51.288;12.390;2022-08-03T00:12:20;48929.28;;;-144.47;74.35
31585;BME280;18191;51.288;12.390;2022-08-03T00:17:10;48913.34;;;-144.47;75.95
31585;BME280;18191;51.288;12.390;2022-08-03T00:22:01;48933.25;;;-144.47;75.92
31585;BME280;18191;51.288;12.390;2022-08-03T00:26:51;48881.53;;;-144.47;75.81
31585;BME280;18191;51.288;12.390;2022-08-03T00:31:41;48857.66;;;-144.47;76.33
31585;BME280;18191;51.288;12.390;2022-08-03T00:36:31;48949.16;;;-144.47;76.50
31585;BME280;18191;51.288;12.390;2022-08-03T00:41:21;48905.41;;;-144.47;76.59
31585;BME280;18191;51.288;12.390;2022-08-03T00:46:12;48857.66;;;-144.47;77.25
31585;BME280;18191;51.288;12.390;2022-08-03T00:51:02;48933.25;;;-144.47;76.46
31585;BME280;18191;51.288;12.390;2022-08-03T00:55:52;48889.50;;;-144.47;77.30
31585;BME280;18191;51.288;12.390;2022-08-03T01:00:42;48901.41;;;-144.47;77.40
31585;BME280;18191;51.288;12.390;2022-08-03T01:20:25;48903.41;;;-144.47;78.28
31585;BME280;18191;51.288;12.390;2022-08-03T01:30:28;48873.56;;;-144.47;77.85
31585;BME280;18191;51.288;12.390;2022-08-03T01:35:21;48941.19;;;-144.47;78.39
31585;BME280;18191;51.288;12.390;2022-08-03T01:40:14;48917.34;;;-144.47;79.37
31585;BME280;18191;51.288;12.390;2022-08-03T01:45:06;48893.47;;;-144.47;79.74
31585;BME280;18191;51.288;12.390;2022-08-03T01:49:57;48909.38;;;-144.47;79.25
31585;BME280;18191;51.288;12.390;2022-08-03T01:54:50;48929.28;;;-144.47;78.94
31585;BME280;18191;51.288;12.390;2022-08-03T01:59:41;48893.47;;;-144.47;78.96
31585;BME280;18191;51.288;12.390;2022-08-03T02:04:32;48873.56;;;-144.47;79.71
31585;BME280;18191;51.288;12.390;2022-08-03T02:09:23;48865.63;;;-144.47;80.66
31585;BME280;18191;51.288;12.390;2022-08-03T02:14:14;48913.34;;;-144.47;80.50
31585;BME280;18191;51.288;12.390;2022-08-03T02:19:05;48905.41;;;-144.47;79.70
31585;BME280;18191;51.288;12.390;2022-08-03T02:23:56;48893.47;;;-144.47;79.88
31585;BME280;18191;51.288;12.390;2022-08-03T02:28:46;48915.34;;;-144.47;80.13
31585;BME280;18191;51.288;12.390;2022-08-03T02:33:41;48923.31;;;-144.47;80.62
31585;BME280;18191;51.288;12.390;2022-08-03T02:38:32;48877.56;;;-144.47;82.32
31585;BME280;18191;51.288;12.390;2022-08-03T02:43:23;48917.34;;;-144.47;81.95
31585;BME280;18191;51.288;12.390;2022-08-03T02:48:19;48889.50;;;-144.47;80.83
31585;BME280;18191;51.288;12.390;2022-08-03T02:53:11;48909.38;;;-144.47;80.66
31585;BME280;18191;51.288;12.390;2022-08-03T02:58:02;48863.63;;;-144.47;82.17
31585;BME280;18191;51.288;12.390;2022-08-03T03:02:55;48913.34;;;-144.47;82.46
31585;BME280;18191;51.288;12.390;2022-08-03T03:07:46;48889.50;;;-144.47;82.74
31585;BME280;18191;51.288;12.390;2022-08-03T03:12:36;48849.69;;;-144.47;82.50
31585;BME280;18191;51.288;12.390;2022-08-03T03:17:27;48921.31;;;-144.47;82.06
31585;BME280;18191;51.288;12.390;2022-08-03T03:22:19;48897.44;;;-144.47;82.72
31585;BME280;18191;51.288;12.390;2022-08-03T03:27:10;48957.13;;;-144.47;82.61
31585;BME280;18191;51.288;12.390;2022-08-03T03:32:02;48917.34;;;-144.47;83.17
31585;BME280;18191;51.288;12.390;2022-08-03T03:36:53;48919.31;;;-144.47;82.01
31585;BME280;18191;51.288;12.390;2022-08-03T03:41:43;48913.34;;;-144.47;82.89
31585;BME280;18191;51.288;12.390;2022-08-03T03:46:33;48939.22;;;-144.47;81.52
31585;BME280;18191;51.288;12.390;2022-08-03T03:51:23;48913.34;;;-144.47;81.58
31585;BME280;18191;51.288;12.390;2022-08-03T03:56:14;48891.47;;;-144.47;81.09
31585;BME280;18191;51.288;12.390;2022-08-03T04:01:04;48891.47;;;-144.47;81.48
31585;BME280;18191;51.288;12.390;2022-08-03T04:05:54;48925.28;;;-144.47;80.39
31585;BME280;18191;51.288;12.390;2022-08-03T04:16:26;48929.28;;;-144.47;81.11
31585;BME280;18191;51.288;12.390;2022-08-03T04:21:18;48917.34;;;-144.47;80.08
31585;BME280;18191;51.288;12.390;2022-08-03T04:26:10;48885.50;;;-144.47;81.34
31585;BME280;18191;51.288;12.390;2022-08-03T04:31:01;48889.50;;;-144.47;80.56
31585;BME280;18191;51.288;12.390;2022-08-03T04:35:53;48917.34;;;-144.47;79.95
31585;BME280;18191;51.288;12.390;2022-08-03T04:40:46;48923.31;;;-144.47;69.54
31585;BME280;18191;51.288;12.390;2022-08-03T04:45:36;48893.47;;;-144.47;54.27
31585;BME280;18191;51.288;12.390;2022-08-03T04:50:27;48881.53;;;-144.47;45.95
31585;BME280;18191;51.288;12.390;2022-08-03T04:55:27;48869.59;;;-144.47;42.15
31585;BME280;18191;51.288;12.390;2022-08-03T05:00:17;48833.78;;;-144.47;40.16
31585;BME280;18191;51.288;12.390;2022-08-03T05:05:08;48841.75;;;-144.47;37.30
31585;BME280;18191;51.288;12.390;2022-08-03T05:09:58;48873.56;;;-144.47;35.96
31585;BME280;18191;51.288;12.390;2022-08-03T05:14:48;48821.84;;;-144.47;34.97
31585;BME280;18191;51.288;12.390;2022-08-03T05:19:39;48861.63;;;-144.47;35.71
31585;BME280;18191;51.288;12.390;2022-08-03T05:24:29;48851.69;;;-144.47;35.98
31585;BME280;18191;51.288;12.390;2022-08-03T05:29:19;48855.66;;;-144.47;34.01
31585;BME280;18191;51.288;12.390;2022-08-03T05:34:09;48809.91;;;-144.47;32.93
31585;BME280;18191;51.288;12.390;2022-08-03T05:38:59;48861.63;;;-144.47;32.22
31585;BME280;18191;51.288;12.390;2022-08-03T05:43:50;48869.59;;;-144.47;31.74
31585;BME280;18191;51.288;12.390;2022-08-03T05:48:41;48847.72;;;-144.47;32.67
31585;BME280;18191;51.288;12.390;2022-08-03T05:53:34;48857.66;;;-144.47;31.14
31585;BME280;18191;51.288;12.390;2022-08-03T05:58:24;48859.66;;;-144.47;31.43
31585;BME280;18191;51.288;12.390;2022-08-03T06:03:14;48825.84;;;-144.47;31.35
31585;BME280;18191;51.288;12.390;2022-08-03T06:08:04;48857.66;;;-144.47;31.79
31585;BME280;18191;51.288;12.390;2022-08-03T06:12:55;48841.75;;;-144.47;32.67
31585;BME280;18191;51.288;12.390;2022-08-03T06:17:45;48857.66;;;-144.47;33.64
31585;BME280;18191;51.288;12.390;2022-08-03T06:22:36;48811.91;;;-144.47;33.77
31585;BME280;18191;51.288;12.390;2022-08-03T06:27:26;48865.63;;;-144.47;33.26
31585;BME280;18191;51.288;12.390;2022-08-03T06:32:16;48821.84;;;-144.47;34.29
31585;BME280;18191;51.288;12.390;2022-08-03T06:37:07;48871.59;;;-144.47;34.48
31585;BME280;18191;51.288;12.390;2022-08-03T06:41:57;48861.63;;;-144.47;36.28
31585;BME280;18191;51.288;12.390;2022-08-03T06:46:47;48893.47;;;-144.47;37.47
31585;BME280;18191;51.288;12.390;2022-08-03T06:51:37;48857.66;;;-144.47;38.15
31585;BME280;18191;51.288;12.390;2022-08-03T06:56:28;48917.34;;;-144.47;38.32
31585;BME280;18191;51.288;12.390;2022-08-03T07:01:18;48897.44;;;-144.47;38.73
31585;BME280;18191;51.288;12.390;2022-08-03T07:06:08;48837.78;;;-144.47;38.79
31585;BME280;18191;51.288;12.390;2022-08-03T07:10:58;48883.53;;;-144.47;39.70
31585;BME280;18191;51.288;12.390;2022-08-03T07:15:48;48893.47;;;-144.47;38.00
31585;BME280;18191;51.288;12.390;2022-08-03T07:20:38;48857.66;;;-144.47;37.50
31585;BME280;18191;51.288;12.390;2022-08-03T07:25:29;48867.59;;;-144.47;37.11
31585;BME280;18191;51.288;12.390;2022-08-03T07:30:19;48899.44;;;-144.47;36.63
31585;BME280;18191;51.288;12.390;2022-08-03T07:35:10;48889.50;;;-144.47;36.77
31585;BME280;18191;51.288;12.390;2022-08-03T07:40:01;48905.41;;;-144.47;36.58
31585;BME280;18191;51.288;12.390;2022-08-03T07:44:51;48889.50;;;-144.47;36.34
31585;BME280;18191;51.288;12.390;2022-08-03T07:49:41;48865.63;;;-144.47;35.60
31585;BME280;18191;51.288;12.390;2022-08-03T07:54:32;48913.34;;;-144.47;36.73
31585;BME280;18191;51.288;12.390;2022-08-03T07:59:22;48901.41;;;-144.47;35.63
31585;BME280;18191;51.288;12.390;2022-08-03T08:04:12;48897.44;;;-144.47;36.30
31585;BME280;18191;51.288;12.390;2022-08-03T08:09:02;48917.34;;;-144.47;34.95
31585;BME280;18191;51.288;12.390;2022-08-03T08:13:52;48889.50;;;-144.47;34.90
31585;BME280;18191;51.288;12.390;2022-08-03T08:18:42;48865.63;;;-144.47;35.12
31585;BME280;18191;51.288;12.390;2022-08-03T08:23:33;48859.66;;;-144.47;34.06
31585;BME280;18191;51.288;12.390;2022-08-03T08:28:23;48841.75;;;-144.47;33.77
31585;BME280;18191;51.288;12.390;2022-08-03T08:33:13;48879.53;;;-144.47;33.17
31585;BME280;18191;51.288;12.390;2022-08-03T08:38:03;48881.53;;;-144.47;33.02
31585;BME280;18191;51.288;12.390;2022-08-03T08:42:53;48849.69;;;-144.47;32.42
31585;BME280;18191;51.288;12.390;2022-08-03T08:47:45;48871.59;;;-144.47;32.47
31585;BME280;18191;51.288;12.390;2022-08-03T08:52:35;48873.56;;;-144.47;32.19
31585;BME280;18191;51.288;12.390;2022-08-03T08:57:29;48865.63;;;-144.47;32.11
31585;BME280;18191;51.288;12.390;2022-08-03T09:02:19;48857.66;;;-144.47;31.10
31585;BME280;18191;51.288;12.390;2022-08-03T09:07:09;48883.53;;;-144.47;30.21
31585;BME280;18191;51.288;12.390;2022-08-03T09:11:59;48895.44;;;-144.47;30.06
31585;BME280;18191;51.288;12.390;2022-08-03T09:16:56;48865.63;;;-144.47;29.16
31585;BME280;18191;51.288;12.390;2022-08-03T09:22:05;48825.84;;;-144.47;28.43
31585;BME280;18191;51.288;12.390;2022-08-03T09:26:56;48873.56;;;-144.47;29.25
31585;BME280;18191;51.288;12.390;2022-08-03T09:31:47;48863.63;;;-144.47;28.51
31585;BME280;18191;51.288;12.390;2022-08-03T09:36:40;48905.41;;;-144.47;27.97
31585;BME280;18191;51.288;12.390;2022-08-03T09:41:31;48861.63;;;-144.47;28.17
31585;BME280;18191;51.288;12.390;2022-08-03T09:46:21;48849.69;;;-144.47;27.56
31585;BME280;18191;51.288;12.390;2022-08-03T09:51:11;48794.00;;;-144.47;26.54
31585;BME280;18191;51.288;12.390;2022-08-03T09:56:04;48897.44;;;-144.47;27.02
31585;BME280;18191;51.288;12.390;2022-08-03T10:05:47;48833.78;;;-144.47;27.03
31585;BME280;18191;51.288;12.390;2022-08-03T10:10:41;48865.63;;;-144.47;26.73
31585;BME280;18191;51.288;12.390;2022-08-03T10:15:31;48821.84;;;-144.47;27.18
31585;BME280;18191;51.288;12.390;2022-08-03T10:20:22;48859.66;;;-144.47;27.80
31585;BME280;18191;51.288;12.390;2022-08-03T10:25:12;48817.88;;;-144.47;27.74
31585;BME280;18191;51.288;12.390;2022-08-03T10:30:08;48841.75;;;-144.47;26.81
31585;BME280;18191;51.288;12.390;2022-08-03T10:35:06;48867.59;;;-144.47;28.29
31585;BME280;18191;51.288;12.390;2022-08-03T10:39:57;48849.69;;;-144.47;27.31
31585;BME280;18191;51.288;12.390;2022-08-03T10:44:50;48857.66;;;-144.47;27.58
31585;BME280;18191;51.288;12.390;2022-08-03T10:49:41;48825.84;;;-144.47;27.41
31585;BME280;18191;51.288;12.390;2022-08-03T10:54:42;48869.59;;;-144.47;26.77
31585;BME280;18191;51.288;12.390;2022-08-03T11:04:44;48813.91;;;-144.47;27.71
31585;BME280;18191;51.288;12.390;2022-08-03T11:09:39;48873.56;;;-144.47;27.02
31585;BME280;18191;51.288;12.390;2022-08-03T11:14:30;48825.84;;;-144.47;27.30
31585;BME280;18191;51.288;12.390;2022-08-03T11:19:43;48825.84;;;-144.47;26.53
31585;BME280;18191;51.288;12.390;2022-08-03T11:29:32;48825.84;;;-144.47;25.51
31585;BME280;18191;51.288;12.390;2022-08-03T11:34:22;48853.69;;;-144.47;25.30
31585;BME280;18191;51.288;12.390;2022-08-03T11:39:13;48823.84;;;-144.47;26.17
31585;BME280;18191;51.288;12.390;2022-08-03T11:44:04;48786.06;;;-144.47;26.01
31585;BME280;18191;51.288;12.390;2022-08-03T11:48:54;48821.84;;;-144.47;25.65
31585;BME280;18191;51.288;12.390;2022-08-03T11:53:52;48837.78;;;-144.47;25.37
31585;BME280;18191;51.288;12.390;2022-08-03T11:58:46;48833.78;;;-144.47;24.33
31585;BME280;18191;51.288;12.390;2022-08-03T12:03:41;48811.91;;;-144.47;25.34
31585;BME280;18191;51.288;12.390;2022-08-03T12:08:32;48833.78;;;-144.47;24.86
31585;BME280;18191;51.288;12.390;2022-08-03T12:13:22;48821.84;;;-144.47;26.31
31585;BME280;18191;51.288;12.390;2022-08-03T12:18:14;48805.94;;;-144.47;25.12
31585;BME280;18191;51.288;12.390;2022-08-03T12:23:05;48798.00;;;-144.47;25.03
31585;BME280;18191;51.288;12.390;2022-08-03T12:28:04;48807.94;;;-144.47;24.73
31585;BME280;18191;51.288;12.390;2022-08-03T12:32:55;48813.91;;;-144.47;24.89
31585;BME280;18191;51.288;12.390;2022-08-03T12:37:46;48835.78;;;-144.47;24.72
31585;BME280;18191;51.288;12.390;2022-08-03T12:42:37;48821.84;;;-144.47;25.29
31585;BME280;18191;51.288;12.390;2022-08-03T12:47:28;48784.06;;;-144.47;23.74
31585;BME280;18191;51.288;12.390;2022-08-03T12:52:19;48786.06;;;-144.47;23.72
31585;BME280;18191;51.288;12.390;2022-08-03T12:57:11;48855.66;;;-144.47;24.46
31585;BME280;18191;51.288;12.390;2022-08-03T13:02:02;48815.88;;;-144.47;24.91
31585;BME280;18191;51.288;12.390;2022-08-03T13:06:56;48805.94;;;-144.47;23.83
31585;BME280;18191;51.288;12.390;2022-08-03T13:11:46;48817.88;;;-144.47;25.21
31585;BME280;18191;51.288;12.390;2022-08-03T13:16:52;48813.91;;;-144.47;24.11
31585;BME280;18191;51.288;12.390;2022-08-03T13:21:43;48798.00;;;-144.47;23.90
31585;BME280;18191;51.288;12.390;2022-08-03T13:26:33;48821.84;;;-144.47;23.81
31585;BME280;18191;51.288;12.390;2022-08-03T13:31:26;48801.97;;;-144.47;23.85
31585;BME280;18191;51.288;12.390;2022-08-03T13:36:17;48801.97;;;-144.47;24.38
31585;BME280;18191;51.288;12.390;2022-08-03T13:41:07;48841.75;;;-144.47;24.96
31585;BME280;18191;51.288;12.390;2022-08-03T13:45:57;48774.13;;;-144.47;24.43
31585;BME280;18191;51.288;12.390;2022-08-03T13:50:47;48817.88;;;-144.47;24.88
31585;BME280;18191;51.288;12.390;2022-08-03T13:55:37;48823.84;;;-144.47;23.48
31585;BME280;18191;51.288;12.390;2022-08-03T14:00:28;48805.94;;;-144.47;24.11
31585;BME280;18191;51.288;12.390;2022-08-03T14:05:18;48798.00;;;-144.47;23.56
31585;BME280;18191;51.288;12.390;2022-08-03T14:10:08;48813.91;;;-144.47;23.43
31585;BME280;18191;51.288;12.390;2022-08-03T14:14:58;48778.09;;;-144.47;25.45
31585;BME280;18191;51.288;12.390;2022-08-03T14:19:49;48770.13;;;-144.47;24.16
31585;BME280;18191;51.288;12.390;2022-08-03T14:24:39;48798.00;;;-144.47;24.04
31585;BME280;18191;51.288;12.390;2022-08-03T14:29:29;48798.00;;;-144.47;22.26
31585;BME280;18191;51.288;12.390;2022-08-03T14:34:19;48811.91;;;-144.47;22.94
31585;BME280;18191;51.288;12.390;2022-08-03T14:39:09;48813.91;;;-144.47;24.57
31585;BME280;18191;51.288;12.390;2022-08-03T14:43:59;48764.16;;;-144.47;23.30
31585;BME280;18191;51.288;12.390;2022-08-03T14:48:50;48790.03;;;-144.47;22.61
31585;BME280;18191;51.288;12.390;2022-08-03T14:53:40;48788.03;;;-144.47;23.59
31585;BME280;18191;51.288;12.390;2022-08-03T14:58:30;48782.06;;;-144.47;23.11
31585;BME280;18191;51.288;12.390;2022-08-03T15:03:21;48788.03;;;-144.47;23.37
31585;BME280;18191;51.288;12.390;2022-08-03T15:08:14;48762.19;;;-144.47;24.78
31585;BME280;18191;51.288;12.390;2022-08-03T15:13:04;48778.09;;;-144.47;24.44
31585;BME280;18191;51.288;12.390;2022-08-03T15:17:55;48778.09;;;-144.47;22.71
31585;BME280;18191;51.288;12.390;2022-08-03T15:22:45;48786.06;;;-144.47;23.59
31585;BME280;18191;51.288;12.390;2022-08-03T15:27:35;48780.09;;;-144.47;22.84
31585;BME280;18191;51.288;12.390;2022-08-03T15:32:25;48807.94;;;-144.47;23.56
31585;BME280;18191;51.288;12.390;2022-08-03T15:37:15;48770.13;;;-144.47;23.50
31585;BME280;18191;51.288;12.390;2022-08-03T15:42:05;48782.06;;;-144.47;22.84
31585;BME280;18191;51.288;12.390;2022-08-03T15:46:56;48766.16;;;-144.47;22.76
31585;BME280;18191;51.288;12.390;2022-08-03T15:51:46;48764.16;;;-144.47;23.15
31585;BME280;18191;51.288;12.390;2022-08-03T15:56:36;48760.19;;;-144.47;24.51
31585;BME280;18191;51.288;12.390;2022-08-03T16:01:26;48776.09;;;-144.47;23.15
31585;BME280;18191;51.288;12.390;2022-08-03T16:06:17;48782.06;;;-144.47;23.23
31585;BME280;18191;51.288;12.390;2022-08-03T16:11:07;48776.09;;;-144.47;23.83
31585;BME280;18191;51.288;12.390;2022-08-03T16:15:57;48805.94;;;-144.47;23.10
31585;BME280;18191;51.288;12.390;2022-08-03T16:20:48;48774.13;;;-144.47;24.99
31585;BME280;18191;51.288;12.390;2022-08-03T16:25:39;48776.09;;;-144.47;23.75
31585;BME280;18191;51.288;12.390;2022-08-03T16:30:29;48788.03;;;-144.47;24.68
31585;BME280;18191;51.288;12.390;2022-08-03T16:35:19;48809.91;;;-144.47;25.65
31585;BME280;18191;51.288;12.390;2022-08-03T16:40:11;48798.00;;;-144.47;24.64
31585;BME280;18191;51.288;12.390;2022-08-03T16:45:03;48811.91;;;-144.47;23.35
31585;BME280;18191;51.288;12.390;2022-08-03T16:49:53;48778.09;;;-144.47;24.08
31585;BME280;18191;51.288;12.390;2022-08-03T16:54:43;48790.03;;;-144.47;25.13
31585;BME280;18191;51.288;12.390;2022-08-03T16:59:34;48764.16;;;-144.47;24.61
31585;BME280;18191;51.288;12.390;2022-08-03T17:04:24;48774.13;;;-144.47;23.71
31585;BME280;18191;51.288;12.390;2022-08-03T17:09:15;48762.19;;;-144.47;24.16
31585;BME280;18191;51.288;12.390;2022-08-03T17:14:07;48774.13;;;-144.47;23.36
31585;BME280;18191;51.288;12.390;2022-08-03T17:18:58;48778.09;;;-144.47;23.70
31585;BME280;18191;51.288;12.390;2022-08-03T17:29:02;48780.09;;;-144.47;24.71
31585;BME280;18191;51.288;12.390;2022-08-03T17:33:52;48774.13;;;-144.47;24.56
31585;BME280;18191;51.288;12.390;2022-08-03T17:38:43;48790.03;;;-144.47;23.90
31585;BME280;18191;51.288;12.390;2022-08-03T17:43:33;48768.16;;;-144.47;23.14
31585;BME280;18191;51.288;12.390;2022-08-03T17:48:23;48746.28;;;-144.47;22.89
31585;BME280;18191;51.288;12.390;2022-08-03T17:53:14;48756.22;;;-144.47;23.35
31585;BME280;18191;51.288;12.390;2022-08-03T17:58:06;48740.31;;;-144.47;25.42
31585;BME280;18191;51.288;12.390;2022-08-03T18:08:09;48794.00;;;-144.47;27.19
31585;BME280;18191;51.288;12.390;2022-08-03T18:13:02;48809.91;;;-144.47;27.37
31585;BME280;18191;51.288;12.390;2022-08-03T18:17:53;48762.19;;;-144.47;28.78
31585;BME280;18191;51.288;12.390;2022-08-03T18:22:44;48803.94;;;-144.47;28.14
31585;BME280;18191;51.288;12.390;2022-08-03T18:27:34;48786.06;;;-144.47;30.38
31585;BME280;18191;51.288;12.390;2022-08-03T18:32:25;48817.88;;;-144.47;30.95
31585;BME280;18191;51.288;12.390;2022-08-03T18:37:16;48778.09;;;-144.47;31.48
31585;BME280;18191;51.288;12.390;2022-08-03T18:42:07;48742.28;;;-144.47;32.07
31585;BME280;18191;51.288;12.390;2022-08-03T18:47:16;48786.06;;;-144.47;33.24
31585;BME280;18191;51.288;12.390;2022-08-03T18:52:12;48710.47;;;-144.47;32.17
31585;BME280;18191;51.288;12.390;2022-08-03T18:57:04;48758.19;;;-144.47;32.82
31585;BME280;18191;51.288;12.390;2022-08-03T19:01:58;48778.09;;;-144.47;34.36
31585;BME280;18191;51.288;12.390;2022-08-03T19:06:49;48794.00;;;-144.47;35.43
31585;BME280;18191;51.288;12.390;2022-08-03T19:11:44;48825.84;;;-144.47;35.80
31585;BME280;18191;51.288;12.390;2022-08-03T19:16:35;48790.03;;;-144.47;35.58
31585;BME280;18191;51.288;12.390;2022-08-03T19:21:27;48738.31;;;-144.47;35.41
31585;BME280;18191;51.288;12.390;2022-08-03T19:26:17;48817.88;;;-144.47;36.57
31585;BME280;18191;51.288;12.390;2022-08-03T19:31:08;48776.09;;;-144.47;36.61
31585;BME280;18191;51.288;12.390;2022-08-03T19:35:59;48734.34;;;-144.47;37.14
31585;BME280;18191;51.288;12.390;2022-08-03T19:40:50;48778.09;;;-144.47;36.89
31585;BME280;18191;51.288;12.390;2022-08-03T19:45:41;48754.22;;;-144.47;37.22
31585;BME280;18191;51.288;12.390;2022-08-03T19:50:34;48809.91;;;-144.47;39.62
31585;BME280;18191;51.288;12.390;2022-08-03T19:55:24;48764.16;;;-144.47;39.85
31585;BME280;18191;51.288;12.390;2022-08-03T20:00:16;48807.94;;;-144.47;39.50
31585;BME280;18191;51.288;12.390;2022-08-03T20:05:09;48792.03;;;-144.47;40.32
31585;BME280;18191;51.288;12.390;2022-08-03T20:10:00;48764.16;;;-144.47;40.45
31585;BME280;18191;51.288;12.390;2022-08-03T20:14:50;48805.94;;;-144.47;38.88
31585;BME280;18191;51.288;12.390;2022-08-03T20:19:40;48794.00;;;-144.47;40.20
31585;BME280;18191;51.288;12.390;2022-08-03T20:24:32;48805.94;;;-144.47;41.87
31585;BME280;18191;51.288;12.390;2022-08-03T20:29:30;48786.06;;;-144.47;40.42
31585;BME280;18191;51.288;12.390;2022-08-03T20:34:23;48780.09;;;-144.47;42.83
31585;BME280;18191;51.288;12.390;2022-08-03T20:39:13;48774.13;;;-144.47;44.53
31585;BME280;18191;51.288;12.390;2022-08-03T20:44:03;48768.16;;;-144.47;44.67
31585;BME280;18191;51.288;12.390;2022-08-03T20:48:55;48805.94;;;-144.47;44.14
31585;BME280;18191;51.288;12.390;2022-08-03T20:53:46;48762.19;;;-144.47;45.68
31585;BME280;18191;51.288;12.390;2022-08-03T20:58:36;48790.03;;;-144.47;42.45
31585;BME280;18191;51.288;12.390;2022-08-03T21:03:27;48803.94;;;-144.47;45.50
31585;BME280;18191;51.288;12.390;2022-08-03T21:08:17;48778.09;;;-144.47;45.63
31585;BME280;18191;51.288;12.390;2022-08-03T21:13:13;48807.94;;;-144.47;46.88
31585;BME280;18191;51.288;12.390;2022-08-03T21:18:08;48778.09;;;-144.47;47.45
31585;BME280;18191;51.288;12.390;2022-08-03T21:22:59;48790.03;;;-144.47;46.29
31585;BME280;18191;51.288;12.390;2022-08-03T21:27:50;48803.94;;;-144.47;47.31
31585;BME280;18191;51.288;12.390;2022-08-03T21:32:41;48794.00;;;-144.47;47.78
31585;BME280;18191;51.288;12.390;2022-08-03T21:37:32;48766.16;;;-144.47;45.75
31585;BME280;18191;51.288;12.390;2022-08-03T21:42:22;48815.88;;;-144.47;48.15
31585;BME280;18191;51.288;12.390;2022-08-03T21:47:12;48786.06;;;-144.47;48.42
31585;BME280;18191;51.288;12.390;2022-08-03T21:52:04;48786.06;;;-144.47;48.71
31585;BME280;18191;51.288;12.390;2022-08-03T21:56:54;48782.06;;;-144.47;48.31
31585;BME280;18191;51.288;12.390;2022-08-03T22:01:47;48780.09;;;-144.47;50.12
31585;BME280;18191;51.288;12.390;2022-08-03T22:06:37;48766.16;;;-144.47;48.60
31585;BME280;18191;51.288;12.390;2022-08-03T22:11:32;48778.09;;;-144.47;47.89
31585;BME280;18191;51.288;12.390;2022-08-03T22:16:22;48774.13;;;-144.47;49.69
31585;BME280;18191;51.288;12.390;2022-08-03T22:21:14;48778.09;;;-144.47;49.45
31585;BME280;18191;51.288;12.390;2022-08-03T22:26:04;48801.97;;;-144.47;50.03
31585;BME280;18191;51.288;12.390;2022-08-03T22:30:55;48803.94;;;-144.47;49.95
31585;BME280;18191;51.288;12.390;2022-08-03T22:35:48;48792.03;;;-144.47;49.90
31585;BME280;18191;51.288;12.390;2022-08-03T22:40:38;48726.38;;;-144.47;51.25
31585;BME280;18191;51.288;12.390;2022-08-03T22:45:28;48764.16;;;-144.47;50.90
31585;BME280;18191;51.288;12.390;2022-08-03T22:50:19;48762.19;;;-144.47;51.90
31585;BME280;18191;51.288;12.390;2022-08-03T22:55:11;48778.09;;;-144.47;50.40
31585;BME280;18191;51.288;12.390;2022-08-03T23:00:03;48790.03;;;-144.47;50.77
31585;BME280;18191;51.288;12.390;2022-08-03T23:04:55;48809.91;;;-144.47;52.19
31585;BME280;18191;51.288;12.390;2022-08-03T23:09:46;48778.09;;;-144.47;51.74
31585;BME280;18191;51.288;12.390;2022-08-03T23:14:37;48766.16;;;-144.47;50.63
31585;BME280;18191;51.288;12.390;2022-08-03T23:19:27;48801.97;;;-144.47;51.33
31585;BME280;18191;51.288;12.390;2022-08-03T23:24:18;48799.97;;;-144.47;52.32
31585;BME280;18191;51.288;12.390;2022-08-03T23:29:08;48817.88;;;-144.47;51.90
31585;BME280;18191;51.288;12.390;2022-08-03T23:34:00;48752.22;;;-144.47;52.87
31585;BME280;18191;51.288;12.390;2022-08-03T23:39:09;48805.94;;;-144.47;53.44
31585;BME280;18191;51.288;12.390;2022-08-03T23:44:01;48782.06;;;-144.47;53.75
31585;BME280;18191;51.288;12.390;2022-08-03T23:48:52;48770.13;;;-144.47;53.37
31585;BME280;18191;51.288;12.390;2022-08-03T23:53:45;48786.06;;;-144.47;51.83
